sensor_id;sensor_type;location;lat;lon;timestamp;pressure;altitude;pressure_sealevel;temperature;humidity
26487;BME280;14425;56.136;40.360;2023-05-10T00:00:56;100551.13;;;12.14;33.85
26487;BME280;14425;56.136;40.360;2023-05-10T00:03:21;100548.91;;;11.84;34.06
26487;BME280;14425;56.136;40.360;2023-05-10T00:05:47;100555.91;;;11.87;34.90
26487;BME280;14425;56.136;40.360;2023-05-10T00:08:12;100545.06;;;11.94;33.68
26487;BME280;14425;56.136;40.360;2023-05-10T00:10:38;100547.69;;;12.15;33.73
26487;BME280;14425;56.136;40.360;2023-05-10T00:13:03;100543.81;;;11.86;33.29
26487;BME280;14425;56.136;40.360;2023-05-10T00:15:29;100547.09;;;11.44;34.02
26487;BME280;14425;56.136;40.360;2023-05-10T00:17:56;100551.19;;;11.21;35.06
26487;BME280;14425;56.136;40.360;2023-05-10T00:20:22;100548.34;;;11.52;34.03
26487;BME280;14425;56.136;40.360;2023-05-10T00:22:47;100550.66;;;11.85;33.76
26487;BME280;14425;56.136;40.360;2023-05-10T00:25:13;100551.72;;;12.08;34.11
26487;BME280;14425;56.136;40.360;2023-05-10T00:27:38;100549.53;;;12.17;33.53
26487;BME280;14425;56.136;40.360;2023-05-10T00:30:04;100540.28;;;12.23;33.68
26487;BME280;14425;56.136;40.360;2023-05-10T00:32:33;100542.75;;;12.00;33.79
26487;BME280;14425;56.136;40.360;2023-05-10T00:34:59;100546.53;;;12.08;33.08
26487;BME280;14425;56.136;40.360;2023-05-10T00:37:24;100539.22;;;11.98;33.66
26487;BME280;14425;56.136;40.360;2023-05-10T00:39:50;100539.22;;;11.98;32.78
26487;BME280;14425;56.136;40.360;2023-05-10T00:42:15;100544.88;;;12.09;33.67
26487;BME280;14425;56.136;40.360;2023-05-10T00:44:41;100550.72;;;11.87;32.33
26487;BME280;14425;56.136;40.360;2023-05-10T00:47:07;100549.50;;;11.59;33.63
26487;BME280;14425;56.136;40.360;2023-05-10T00:49:36;100554.13;;;11.66;33.80
26487;BME280;14425;56.136;40.360;2023-05-10T00:52:01;100543.28;;;11.55;33.50
26487;BME280;14425;56.136;40.360;2023-05-10T00:54:28;100540.81;;;11.76;33.25
26487;BME280;14425;56.136;40.360;2023-05-10T00:56:54;100542.41;;;11.55;33.76
26487;BME280;14425;56.136;40.360;2023-05-10T00:59:20;100546.69;;;11.17;33.49
26487;BME280;14425;56.136;40.360;2023-05-10T01:01:46;100541.22;;;11.10;33.93
26487;BME280;14425;56.136;40.360;2023-05-10T01:04:12;100544.63;;;11.09;34.20
26487;BME280;14425;56.136;40.360;2023-05-10T01:06:41;100541.03;;;11.24;33.77
26487;BME280;14425;56.136;40.360;2023-05-10T01:09:07;100531.72;;;11.09;34.37
26487;BME280;14425;56.136;40.360;2023-05-10T01:11:36;100531.00;;;10.76;34.06
26487;BME280;14425;56.136;40.360;2023-05-10T01:14:03;100539.09;;;10.66;34.70
26487;BME280;14425;56.136;40.360;2023-05-10T01:16:36;100543.47;;;11.03;34.06
26487;BME280;14425;56.136;40.360;2023-05-10T01:19:05;100540.56;;;10.97;34.35
26487;BME280;14425;56.136;40.360;2023-05-10T01:21:44;100540.88;;;10.85;34.91
26487;BME280;14425;56.136;40.360;2023-05-10T01:32:42;100530.09;;;11.12;34.78
26487;BME280;14425;56.136;40.360;2023-05-10T01:35:10;100539.25;;;11.23;35.17
26487;BME280;14425;56.136;40.360;2023-05-10T01:37:46;100548.31;;;11.15;35.42
26487;BME280;14425;56.136;40.360;2023-05-10T01:40:29;100534.63;;;11.35;35.42
26487;BME280;14425;56.136;40.360;2023-05-10T01:43:01;100537.91;;;11.13;35.53
26487;BME280;14425;56.136;40.360;2023-05-10T01:45:41;100542.84;;;10.90;35.53
26487;BME280;14425;56.136;40.360;2023-05-10T01:48:11;100548.47;;;11.00;35.39
26487;BME280;14425;56.136;40.360;2023-05-10T01:50:42;100541.97;;;11.08;36.21
26487;BME280;14425;56.136;40.360;2023-05-10T01:53:09;100531.34;;;11.20;35.40
26487;BME280;14425;56.136;40.360;2023-05-10T01:55:43;100540.13;;;11.05;35.90
26487;BME280;14425;56.136;40.360;2023-05-10T01:58:14;100522.97;;;11.25;35.43
26487;BME280;14425;56.136;40.360;2023-05-10T02:00:44;100527.59;;;10.95;35.79
26487;BME280;14425;56.136;40.360;2023-05-10T02:03:11;100526.75;;;10.60;36.87
26487;BME280;14425;56.136;40.360;2023-05-10T02:05:39;100522.50;;;10.10;37.87
26487;BME280;14425;56.136;40.360;2023-05-10T02:08:07;100523.47;;;9.79;38.55
26487;BME280;14425;56.136;40.360;2023-05-10T02:10:36;100522.84;;;9.99;38.17
26487;BME280;14425;56.136;40.360;2023-05-10T02:13:04;100524.81;;;10.72;37.17
26487;BME280;14425;56.136;40.360;2023-05-10T02:15:32;100519.78;;;11.12;35.86
26487;BME280;14425;56.136;40.360;2023-05-10T02:17:59;100519.63;;;10.90;36.49
26487;BME280;14425;56.136;40.360;2023-05-10T02:20:26;100519.75;;;10.76;36.46
26487;BME280;14425;56.136;40.360;2023-05-10T02:22:54;100521.59;;;10.60;36.44
26487;BME280;14425;56.136;40.360;2023-05-10T02:25:21;100518.00;;;10.57;36.46
26487;BME280;14425;56.136;40.360;2023-05-10T02:27:48;100515.06;;;10.67;36.02
26487;BME280;14425;56.136;40.360;2023-05-10T02:30:14;100506.28;;;11.17;35.37
26487;BME280;14425;56.136;40.360;2023-05-10T02:32:41;100511.31;;;10.78;35.67
26487;BME280;14425;56.136;40.360;2023-05-10T02:35:08;100501.47;;;11.25;35.07
26487;BME280;14425;56.136;40.360;2023-05-10T02:37:37;100507.00;;;11.15;34.78
26487;BME280;14425;56.136;40.360;2023-05-10T02:40:04;100510.06;;;11.06;35.25
26487;BME280;14425;56.136;40.360;2023-05-10T02:42:32;100513.81;;;11.32;34.66
26487;BME280;14425;56.136;40.360;2023-05-10T02:45:01;100511.91;;;11.65;34.20
26487;BME280;14425;56.136;40.360;2023-05-10T02:47:33;100507.63;;;11.86;33.79
26487;BME280;14425;56.136;40.360;2023-05-10T02:49:59;100505.84;;;11.65;33.58
26487;BME280;14425;56.136;40.360;2023-05-10T02:52:28;100509.00;;;11.77;33.68
26487;BME280;14425;56.136;40.360;2023-05-10T02:54:55;100507.31;;;11.03;33.96
26487;BME280;14425;56.136;40.360;2023-05-10T02:57:27;100507.44;;;11.24;34.87
26487;BME280;14425;56.136;40.360;2023-05-10T02:59:54;100504.41;;;11.33;34.74
26487;BME280;14425;56.136;40.360;2023-05-10T03:02:20;100504.16;;;11.46;34.31
26487;BME280;14425;56.136;40.360;2023-05-10T03:04:46;100511.59;;;11.02;34.25
26487;BME280;14425;56.136;40.360;2023-05-10T03:07:12;100500.13;;;11.15;34.56
26487;BME280;14425;56.136;40.360;2023-05-10T03:09:38;100511.38;;;10.80;34.88
26487;BME280;14425;56.136;40.360;2023-05-10T03:18:11;100509.25;;;11.44;34.28
26487;BME280;14425;56.136;40.360;2023-05-10T03:20:48;100507.47;;;11.63;34.43
26487;BME280;14425;56.136;40.360;2023-05-10T03:25:45;100512.38;;;11.76;34.33
26487;BME280;14425;56.136;40.360;2023-05-10T03:28:12;100505.47;;;11.00;34.71
26487;BME280;14425;56.136;40.360;2023-05-10T03:30:40;100510.59;;;9.95;35.56
26487;BME280;14425;56.136;40.360;2023-05-10T03:33:07;100504.16;;;9.71;36.82
26487;BME280;14425;56.136;40.360;2023-05-10T03:35:32;100509.63;;;9.93;36.36
26487;BME280;14425;56.136;40.360;2023-05-10T03:37:58;100502.22;;;10.68;35.49
26487;BME280;14425;56.136;40.360;2023-05-10T03:40:24;100499.53;;;11.39;34.77
26487;BME280;14425;56.136;40.360;2023-05-10T03:42:49;100499.50;;;11.96;34.71
26487;BME280;14425;56.136;40.360;2023-05-10T03:45:15;100497.13;;;12.00;34.34
26487;BME280;14425;56.136;40.360;2023-05-10T03:47:40;100502.78;;;12.13;34.07
26487;BME280;14425;56.136;40.360;2023-05-10T03:50:07;100501.44;;;12.01;33.68
26487;BME280;14425;56.136;40.360;2023-05-10T03:52:32;100498.78;;;12.00;34.02
26487;BME280;14425;56.136;40.360;2023-05-10T03:54:58;100500.97;;;11.71;34.70
26487;BME280;14425;56.136;40.360;2023-05-10T03:57:23;100488.97;;;11.54;35.24
26487;BME280;14425;56.136;40.360;2023-05-10T03:59:49;100500.09;;;11.71;34.97
26487;BME280;14425;56.136;40.360;2023-05-10T04:02:15;100502.47;;;11.86;34.97
26487;BME280;14425;56.136;40.360;2023-05-10T04:04:40;100499.72;;;12.22;35.02
26487;BME280;14425;56.136;40.360;2023-05-10T04:07:06;100493.81;;;12.45;34.27
26487;BME280;14425;56.136;40.360;2023-05-10T04:09:31;100493.88;;;12.47;34.38
26487;BME280;14425;56.136;40.360;2023-05-10T04:11:58;100484.66;;;12.53;34.39
26487;BME280;14425;56.136;40.360;2023-05-10T04:14:24;100488.81;;;12.29;35.35
26487;BME280;14425;56.136;40.360;2023-05-10T04:16:49;100488.41;;;12.19;34.99
26487;BME280;14425;56.136;40.360;2023-05-10T04:19:15;100491.00;;;12.19;36.34
26487;BME280;14425;56.136;40.360;2023-05-10T04:21:40;100484.47;;;12.49;35.22
26487;BME280;14425;56.136;40.360;2023-05-10T04:24:06;100484.66;;;12.53;35.84
26487;BME280;14425;56.136;40.360;2023-05-10T04:26:31;100495.81;;;12.31;35.67
26487;BME280;14425;56.136;40.360;2023-05-10T04:28:57;100488.81;;;12.29;36.00
26487;BME280;14425;56.136;40.360;2023-05-10T04:31:22;100491.31;;;12.48;36.17
26487;BME280;14425;56.136;40.360;2023-05-10T04:33:48;100496.06;;;11.97;37.32
26487;BME280;14425;56.136;40.360;2023-05-10T04:36:13;100497.13;;;11.24;37.16
26487;BME280;14425;56.136;40.360;2023-05-10T04:38:39;100495.22;;;11.39;38.49
26487;BME280;14425;56.136;40.360;2023-05-10T04:41:06;100499.47;;;11.76;38.38
26487;BME280;14425;56.136;40.360;2023-05-10T04:43:32;100491.97;;;11.43;40.23
26487;BME280;14425;56.136;40.360;2023-05-10T04:45:58;100491.16;;;11.07;41.71
26487;BME280;14425;56.136;40.360;2023-05-10T04:48:23;100497.69;;;10.81;41.05
26487;BME280;14425;56.136;40.360;2023-05-10T04:50:49;100485.50;;;10.78;42.16
26487;BME280;14425;56.136;40.360;2023-05-10T04:53:15;100476.91;;;11.15;41.18
26487;BME280;14425;56.136;40.360;2023-05-10T04:55:40;100484.38;;;11.86;40.13
26487;BME280;14425;56.136;40.360;2023-05-10T04:58:06;100484.28;;;12.44;39.12
26487;BME280;14425;56.136;40.360;2023-05-10T05:00:32;100478.31;;;12.68;39.11
26487;BME280;14425;56.136;40.360;2023-05-10T05:02:58;100488.03;;;11.91;41.57
26487;BME280;14425;56.136;40.360;2023-05-10T05:05:24;100487.47;;;11.78;40.60
26487;BME280;14425;56.136;40.360;2023-05-10T05:07:49;100482.28;;;12.37;39.25
26487;BME280;14425;56.136;40.360;2023-05-10T05:10:15;100478.66;;;12.54;38.70
26487;BME280;14425;56.136;40.360;2023-05-10T05:12:41;100470.75;;;12.51;38.22
26487;BME280;14425;56.136;40.360;2023-05-10T05:15:07;100470.09;;;12.78;38.49
26487;BME280;14425;56.136;40.360;2023-05-10T05:17:34;100464.06;;;12.56;37.97
26487;BME280;14425;56.136;40.360;2023-05-10T05:20:00;100461.31;;;13.18;37.46
26487;BME280;14425;56.136;40.360;2023-05-10T05:22:25;100469.91;;;13.40;37.08
26487;BME280;14425;56.136;40.360;2023-05-10T05:24:57;100453.69;;;13.23;37.66
26487;BME280;14425;56.136;40.360;2023-05-10T05:27:24;100460.88;;;13.30;37.96
26487;BME280;14425;56.136;40.360;2023-05-10T05:29:55;100455.22;;;12.72;39.22
26487;BME280;14425;56.136;40.360;2023-05-10T05:32:21;100451.56;;;12.67;38.88
26487;BME280;14425;56.136;40.360;2023-05-10T05:34:47;100453.88;;;12.38;37.04
26487;BME280;14425;56.136;40.360;2023-05-10T05:37:18;100443.31;;;12.55;35.34
26487;BME280;14425;56.136;40.360;2023-05-10T05:39:44;100450.91;;;12.73;35.19
26487;BME280;14425;56.136;40.360;2023-05-10T05:42:10;100453.44;;;12.71;35.00
26487;BME280;14425;56.136;40.360;2023-05-10T05:44:36;100446.59;;;12.94;34.93
26487;BME280;14425;56.136;40.360;2023-05-10T05:47:02;100446.94;;;13.04;35.40
26487;BME280;14425;56.136;40.360;2023-05-10T05:49:27;100442.38;;;12.97;34.21
26487;BME280;14425;56.136;40.360;2023-05-10T05:51:53;100441.47;;;13.19;33.38
26487;BME280;14425;56.136;40.360;2023-05-10T05:54:18;100442.97;;;13.59;33.55
26487;BME280;14425;56.136;40.360;2023-05-10T05:56:44;100445.38;;;13.78;33.18
26487;BME280;14425;56.136;40.360;2023-05-10T05:59:10;100438.47;;;14.30;32.09
26487;BME280;14425;56.136;40.360;2023-05-10T06:01:36;100429.97;;;14.89;31.43
26487;BME280;14425;56.136;40.360;2023-05-10T06:04:01;100433.41;;;15.17;31.49
26487;BME280;14425;56.136;40.360;2023-05-10T06:06:27;100434.75;;;14.48;31.23
26487;BME280;14425;56.136;40.360;2023-05-10T06:08:53;100434.00;;;14.25;32.81
26487;BME280;14425;56.136;40.360;2023-05-10T06:11:18;100435.91;;;14.04;32.64
26487;BME280;14425;56.136;40.360;2023-05-10T06:13:44;100435.59;;;13.95;31.95
26487;BME280;14425;56.136;40.360;2023-05-10T06:16:09;100428.44;;;14.14;31.25
26487;BME280;14425;56.136;40.360;2023-05-10T06:18:35;100436.91;;;14.08;30.69
26487;BME280;14425;56.136;40.360;2023-05-10T06:21:01;100437.06;;;14.14;32.10
26487;BME280;14425;56.136;40.360;2023-05-10T06:23:27;100437.06;;;14.40;32.00
26487;BME280;14425;56.136;40.360;2023-05-10T06:25:52;100431.88;;;14.13;32.56
26487;BME280;14425;56.136;40.360;2023-05-10T06:28:18;100428.53;;;14.17;31.82
26487;BME280;14425;56.136;40.360;2023-05-10T06:30:43;100425.78;;;14.38;30.42
26487;BME280;14425;56.136;40.360;2023-05-10T06:33:09;100425.78;;;14.65;31.12
26487;BME280;14425;56.136;40.360;2023-05-10T06:35:35;100426.81;;;14.70;30.56
26487;BME280;14425;56.136;40.360;2023-05-10T06:38:02;100431.13;;;15.29;30.76
26487;BME280;14425;56.136;40.360;2023-05-10T06:40:27;100428.53;;;15.29;29.46
26487;BME280;14425;56.136;40.360;2023-05-10T06:42:53;100428.78;;;15.06;29.62
26487;BME280;14425;56.136;40.360;2023-05-10T06:45:18;100424.00;;;15.22;29.49
26487;BME280;14425;56.136;40.360;2023-05-10T06:47:44;100426.38;;;15.12;29.25
26487;BME280;14425;56.136;40.360;2023-05-10T06:50:10;100422.19;;;15.18;30.45
26487;BME280;14425;56.136;40.360;2023-05-10T06:52:37;100409.47;;;15.91;28.78
26487;BME280;14425;56.136;40.360;2023-05-10T06:55:05;100414.38;;;16.50;28.24
26487;BME280;14425;56.136;40.360;2023-05-10T06:57:31;100411.38;;;16.69;28.41
26487;BME280;14425;56.136;40.360;2023-05-10T06:59:58;100416.81;;;17.20;27.96
26487;BME280;14425;56.136;40.360;2023-05-10T07:02:23;100407.28;;;17.20;27.31
26487;BME280;14425;56.136;40.360;2023-05-10T07:04:49;100397.03;;;17.73;27.24
26487;BME280;14425;56.136;40.360;2023-05-10T07:07:15;100407.25;;;17.63;26.78
26487;BME280;14425;56.136;40.360;2023-05-10T07:09:41;100400.34;;;17.66;26.21
26487;BME280;14425;56.136;40.360;2023-05-10T07:12:06;100404.66;;;18.67;25.52
26487;BME280;14425;56.136;40.360;2023-05-10T07:14:32;100394.22;;;18.68;25.75
26487;BME280;14425;56.136;40.360;2023-05-10T07:16:57;100390.13;;;18.27;24.96
26487;BME280;14425;56.136;40.360;2023-05-10T07:19:23;100387.38;;;18.76;24.73
26487;BME280;14425;56.136;40.360;2023-05-10T07:21:49;100402.44;;;18.93;23.64
26487;BME280;14425;56.136;40.360;2023-05-10T07:24:16;100397.88;;;18.82;23.30
26487;BME280;14425;56.136;40.360;2023-05-10T07:26:41;100393.72;;;18.94;23.27
26487;BME280;14425;56.136;40.360;2023-05-10T07:29:07;100386.03;;;19.81;23.51
26487;BME280;14425;56.136;40.360;2023-05-10T07:31:32;100376.28;;;20.74;23.00
26487;BME280;14425;56.136;40.360;2023-05-10T07:33:58;100381.72;;;21.14;22.84
26487;BME280;14425;56.136;40.360;2023-05-10T07:36:23;100376.34;;;20.89;22.20
26487;BME280;14425;56.136;40.360;2023-05-10T07:38:49;100371.66;;;20.37;22.22
26487;BME280;14425;56.136;40.360;2023-05-10T07:41:15;100372.28;;;20.05;23.01
26487;BME280;14425;56.136;40.360;2023-05-10T07:43:41;100376.22;;;19.62;22.66
26487;BME280;14425;56.136;40.360;2023-05-10T07:46:06;100381.53;;;18.93;22.67
26487;BME280;14425;56.136;40.360;2023-05-10T07:48:32;100373.03;;;19.12;23.56
26487;BME280;14425;56.136;40.360;2023-05-10T07:50:57;100370.47;;;19.15;24.40
26487;BME280;14425;56.136;40.360;2023-05-10T07:53:23;100368.13;;;20.30;23.10
26487;BME280;14425;56.136;40.360;2023-05-10T07:55:54;100352.84;;;21.11;22.71
26487;BME280;14425;56.136;40.360;2023-05-10T07:58:22;100355.66;;;22.15;21.69
26487;BME280;14425;56.136;40.360;2023-05-10T08:00:47;100359.75;;;20.95;20.90
26487;BME280;14425;56.136;40.360;2023-05-10T08:03:14;100358.91;;;20.97;21.72
26487;BME280;14425;56.136;40.360;2023-05-10T08:05:39;100351.25;;;21.74;22.24
26487;BME280;14425;56.136;40.360;2023-05-10T08:08:05;100356.50;;;22.14;21.86
26487;BME280;14425;56.136;40.360;2023-05-10T08:10:31;100359.13;;;21.57;21.01
26487;BME280;14425;56.136;40.360;2023-05-10T08:12:57;100347.78;;;22.12;20.29
26487;BME280;14425;56.136;40.360;2023-05-10T08:15:24;100353.88;;;22.51;21.80
26487;BME280;14425;56.136;40.360;2023-05-10T08:17:51;100360.88;;;21.69;21.72
26487;BME280;14425;56.136;40.360;2023-05-10T08:20:16;100344.25;;;21.55;22.46
26487;BME280;14425;56.136;40.360;2023-05-10T08:22:45;100336.25;;;21.15;21.50
26487;BME280;14425;56.136;40.360;2023-05-10T08:25:10;100338.13;;;22.47;21.88
26487;BME280;14425;56.136;40.360;2023-05-10T08:27:36;100332.91;;;22.02;21.82
26487;BME280;14425;56.136;40.360;2023-05-10T08:30:01;100338.88;;;21.18;22.82
26487;BME280;14425;56.136;40.360;2023-05-10T08:32:31;100335.44;;;21.40;22.50
26487;BME280;14425;56.136;40.360;2023-05-10T08:34:57;100333.56;;;22.94;20.42
26487;BME280;14425;56.136;40.360;2023-05-10T08:37:23;100322.28;;;22.75;20.29
26487;BME280;14425;56.136;40.360;2023-05-10T08:39:49;100325.91;;;21.75;22.65
26487;BME280;14425;56.136;40.360;2023-05-10T08:42:18;100320.97;;;20.30;22.07
26487;BME280;14425;56.136;40.360;2023-05-10T08:44:48;100321.53;;;19.88;23.70
26487;BME280;14425;56.136;40.360;2023-05-10T08:47:15;100324.91;;;18.31;24.92
26487;BME280;14425;56.136;40.360;2023-05-10T08:49:41;100326.69;;;18.99;25.23
26487;BME280;14425;56.136;40.360;2023-05-10T08:52:11;100318.50;;;20.52;23.65
26487;BME280;14425;56.136;40.360;2023-05-10T08:54:38;100318.81;;;22.51;22.95
26487;BME280;14425;56.136;40.360;2023-05-10T08:57:04;100307.28;;;22.94;21.63
26487;BME280;14425;56.136;40.360;2023-05-10T08:59:30;100305.47;;;23.11;20.60
26487;BME280;14425;56.136;40.360;2023-05-10T09:01:57;100297.34;;;23.48;21.92
26487;BME280;14425;56.136;40.360;2023-05-10T09:04:24;100294.13;;;24.22;22.08
26487;BME280;14425;56.136;40.360;2023-05-10T09:06:49;100290.69;;;24.12;22.73
26487;BME280;14425;56.136;40.360;2023-05-10T09:09:15;100297.03;;;23.93;22.29
26487;BME280;14425;56.136;40.360;2023-05-10T09:11:42;100287.63;;;24.52;22.65
26487;BME280;14425;56.136;40.360;2023-05-10T09:14:08;100297.94;;;24.76;20.41
26487;BME280;14425;56.136;40.360;2023-05-10T09:16:34;100294.84;;;24.35;19.30
26487;BME280;14425;56.136;40.360;2023-05-10T09:19:00;100289.53;;;25.09;21.03
26487;BME280;14425;56.136;40.360;2023-05-10T09:21:25;100286.63;;;23.71;21.46
26487;BME280;14425;56.136;40.360;2023-05-10T09:23:51;100274.44;;;23.59;22.75
26487;BME280;14425;56.136;40.360;2023-05-10T09:26:23;100283.59;;;22.94;24.04
26487;BME280;14425;56.136;40.360;2023-05-10T09:28:54;100279.47;;;22.29;24.42
26487;BME280;14425;56.136;40.360;2023-05-10T09:31:20;100278.66;;;21.67;25.66
26487;BME280;14425;56.136;40.360;2023-05-10T09:33:47;100276.91;;;21.57;23.79
26487;BME280;14425;56.136;40.360;2023-05-10T09:36:13;100272.53;;;21.65;24.16
26487;BME280;14425;56.136;40.360;2023-05-10T09:38:50;100278.78;;;19.90;23.86
26487;BME280;14425;56.136;40.360;2023-05-10T09:41:23;100270.13;;;19.98;24.71
26487;BME280;14425;56.136;40.360;2023-05-10T09:43:49;100274.53;;;20.03;25.80
26487;BME280;14425;56.136;40.360;2023-05-10T09:46:16;100276.53;;;20.44;25.71
26487;BME280;14425;56.136;40.360;2023-05-10T09:48:45;100270.41;;;20.45;23.57
26487;BME280;14425;56.136;40.360;2023-05-10T09:51:24;100268.69;;;20.57;25.04
26487;BME280;14425;56.136;40.360;2023-05-10T09:54:09;100265.34;;;20.81;23.90
26487;BME280;14425;56.136;40.360;2023-05-10T09:56:38;100259.22;;;20.74;24.78
26487;BME280;14425;56.136;40.360;2023-05-10T09:59:07;100255.91;;;19.68;24.00
26487;BME280;14425;56.136;40.360;2023-05-10T10:01:33;100258.25;;;19.37;25.22
26487;BME280;14425;56.136;40.360;2023-05-10T10:04:02;100263.25;;;19.14;24.44
26487;BME280;14425;56.136;40.360;2023-05-10T10:06:29;100253.84;;;19.30;26.02
26487;BME280;14425;56.136;40.360;2023-05-10T10:08:55;100247.44;;;19.97;25.88
26487;BME280;14425;56.136;40.360;2023-05-10T10:11:23;100253.97;;;18.65;24.29
26487;BME280;14425;56.136;40.360;2023-05-10T10:13:48;100247.16;;;19.63;24.09
26487;BME280;14425;56.136;40.360;2023-05-10T10:16:14;100251.38;;;20.88;23.83
26487;BME280;14425;56.136;40.360;2023-05-10T10:18:40;100238.59;;;19.78;23.13
26487;BME280;14425;56.136;40.360;2023-05-10T10:21:07;100234.75;;;19.40;24.01
26487;BME280;14425;56.136;40.360;2023-05-10T10:23:36;100241.72;;;20.72;23.09
26487;BME280;14425;56.136;40.360;2023-05-10T10:26:03;100231.31;;;22.33;22.25
26487;BME280;14425;56.136;40.360;2023-05-10T10:28:36;100224.88;;;22.98;22.72
26487;BME280;14425;56.136;40.360;2023-05-10T10:31:32;100226.16;;;21.59;23.55
26487;BME280;14425;56.136;40.360;2023-05-10T10:34:03;100225.25;;;21.25;24.29
26487;BME280;14425;56.136;40.360;2023-05-10T10:36:30;100228.72;;;21.21;23.92
26487;BME280;14425;56.136;40.360;2023-05-10T10:39:00;100219.09;;;21.03;24.98
26487;BME280;14425;56.136;40.360;2023-05-10T10:50:07;100220.84;;;21.01;24.21
26487;BME280;14425;56.136;40.360;2023-05-10T10:52:34;100219.13;;;21.63;24.59
26487;BME280;14425;56.136;40.360;2023-05-10T10:55:14;100209.53;;;21.65;24.47
26487;BME280;14425;56.136;40.360;2023-05-10T10:57:56;100217.22;;;20.60;24.20
26487;BME280;14425;56.136;40.360;2023-05-10T11:05:36;100216.63;;;19.63;25.33
26487;BME280;14425;56.136;40.360;2023-05-10T11:11:01;100208.44;;;19.22;25.39
26487;BME280;14425;56.136;40.360;2023-05-10T11:13:39;100211.88;;;19.19;25.74
26487;BME280;14425;56.136;40.360;2023-05-10T11:16:24;100205.84;;;20.61;24.75
26487;BME280;14425;56.136;40.360;2023-05-10T11:19:05;100197.97;;;20.58;24.73
26487;BME280;14425;56.136;40.360;2023-05-10T11:21:32;100199.34;;;19.78;23.97
26487;BME280;14425;56.136;40.360;2023-05-10T11:23:59;100199.59;;;20.25;25.15
26487;BME280;14425;56.136;40.360;2023-05-10T11:26:29;100203.97;;;20.28;25.71
26487;BME280;14425;56.136;40.360;2023-05-10T11:28:55;100193.34;;;19.94;23.94
26487;BME280;14425;56.136;40.360;2023-05-10T11:31:21;100193.47;;;20.23;25.16
26487;BME280;14425;56.136;40.360;2023-05-10T11:33:59;100183.25;;;21.00;25.42
26487;BME280;14425;56.136;40.360;2023-05-10T11:36:35;100182.41;;;21.77;23.66
26487;BME280;14425;56.136;40.360;2023-05-10T11:39:02;100185.53;;;20.08;23.70
26487;BME280;14425;56.136;40.360;2023-05-10T11:41:29;100178.41;;;19.81;25.96
26487;BME280;14425;56.136;40.360;2023-05-10T11:43:56;100176.56;;;19.70;25.55
26487;BME280;14425;56.136;40.360;2023-05-10T11:46:24;100179.25;;;19.78;25.83
26487;BME280;14425;56.136;40.360;2023-05-10T11:48:51;100174.06;;;19.84;24.29
26487;BME280;14425;56.136;40.360;2023-05-10T11:51:24;100169.28;;;19.26;26.49
26487;BME280;14425;56.136;40.360;2023-05-10T11:53:54;100168.81;;;19.81;24.92
26487;BME280;14425;56.136;40.360;2023-05-10T11:56:20;100167.25;;;20.14;24.62
26487;BME280;14425;56.136;40.360;2023-05-10T11:58:53;100162.03;;;20.17;26.33
26487;BME280;14425;56.136;40.360;2023-05-10T12:01:21;100163.84;;;20.37;25.20
26487;BME280;14425;56.136;40.360;2023-05-10T12:03:51;100157.59;;;20.07;26.11
26487;BME280;14425;56.136;40.360;2023-05-10T12:06:19;100156.69;;;19.99;25.31
26487;BME280;14425;56.136;40.360;2023-05-10T12:08:46;100155.38;;;19.33;25.46
26487;BME280;14425;56.136;40.360;2023-05-10T12:11:13;100155.44;;;19.41;25.60
26487;BME280;14425;56.136;40.360;2023-05-10T12:13:46;100160.28;;;18.95;26.38
26487;BME280;14425;56.136;40.360;2023-05-10T12:16:15;100146.53;;;19.16;26.77
26487;BME280;14425;56.136;40.360;2023-05-10T12:18:41;100153.47;;;19.15;26.59
26487;BME280;14425;56.136;40.360;2023-05-10T12:21:12;100149.97;;;19.13;25.41
26487;BME280;14425;56.136;40.360;2023-05-10T12:23:39;100142.50;;;19.60;25.66
26487;BME280;14425;56.136;40.360;2023-05-10T12:26:05;100145.19;;;18.72;25.00
26487;BME280;14425;56.136;40.360;2023-05-10T12:28:32;100151.34;;;18.74;27.74
26487;BME280;14425;56.136;40.360;2023-05-10T12:31:02;100144.78;;;19.15;26.75
26487;BME280;14425;56.136;40.360;2023-05-10T12:33:43;100145.84;;;18.48;27.04
26487;BME280;14425;56.136;40.360;2023-05-10T12:36:10;100155.13;;;18.26;28.25
26487;BME280;14425;56.136;40.360;2023-05-10T12:38:38;100143.56;;;18.04;26.75
26487;BME280;14425;56.136;40.360;2023-05-10T12:41:09;100145.88;;;17.84;27.80
26487;BME280;14425;56.136;40.360;2023-05-10T12:43:35;100146.88;;;17.92;27.70
26487;BME280;14425;56.136;40.360;2023-05-10T12:46:13;100148.28;;;18.34;28.55
26487;BME280;14425;56.136;40.360;2023-05-10T12:48:40;100146.66;;;18.45;27.63
26487;BME280;14425;56.136;40.360;2023-05-10T12:51:07;100147.53;;;18.47;28.03
26487;BME280;14425;56.136;40.360;2023-05-10T12:53:35;100147.00;;;18.03;27.70
26487;BME280;14425;56.136;40.360;2023-05-10T12:56:01;100141.69;;;17.94;29.11
26487;BME280;14425;56.136;40.360;2023-05-10T12:58:26;100139.06;;;17.92;27.31
26487;BME280;14425;56.136;40.360;2023-05-10T13:00:52;100148.66;;;17.96;28.70
26487;BME280;14425;56.136;40.360;2023-05-10T13:03:17;100132.38;;;18.16;29.06
26487;BME280;14425;56.136;40.360;2023-05-10T13:05:43;100136.13;;;18.39;27.95
26487;BME280;14425;56.136;40.360;2023-05-10T13:08:09;100135.47;;;18.57;28.87
26487;BME280;14425;56.136;40.360;2023-05-10T13:10:34;100140.00;;;17.97;27.45
26487;BME280;14425;56.136;40.360;2023-05-10T13:13:00;100147.22;;;17.57;29.89
26487;BME280;14425;56.136;40.360;2023-05-10T13:15:26;100137.34;;;17.36;29.38